createdAt,value
2017-05-24T00:00:58.225Z,11.91
2017-05-24T00:01:58.244Z,11.87
2017-05-24T00:02:58.233Z,11.86
2017-05-24T00:03:58.204Z,11.83
2017-05-24T00:04:58.236Z,11.82
2017-05-24T00:05:58.199Z,11.80
2017-05-24T00:06:58.242Z,11.82
2017-05-24T00:07:58.232Z,11.82
2017-05-24T00:08:58.229Z,11.84
2017-05-24T00:09:58.227Z,11.84
2017-05-24T00:10:58.237Z,11.83
2017-05-24T00:11:58.264Z,11.79
2017-05-24T00:12:58.214Z,11.76
2017-05-24T00:13:58.246Z,11.73
2017-05-24T00:14:58.247Z,11.69
2017-05-24T00:15:58.242Z,11.65
2017-05-24T00:16:58.234Z,11.64
2017-05-24T00:17:58.253Z,11.60
2017-05-24T00:18:58.218Z,11.57
2017-05-24T00:19:58.217Z,11.56
2017-05-24T00:20:58.245Z,11.57
2017-05-24T00:21:58.225Z,11.54
2017-05-24T00:22:58.246Z,11.51
2017-05-24T00:23:58.244Z,11.50
2017-05-24T00:24:58.218Z,11.47
2017-05-24T00:25:58.246Z,11.45
2017-05-24T00:26:58.241Z,11.39
2017-05-24T00:27:58.218Z,11.32
2017-05-24T00:28:58.262Z,11.32
2017-05-24T00:29:58.242Z,11.28
2017-05-24T00:30:58.243Z,11.24
2017-05-24T00:31:58.245Z,11.22
2017-05-24T00:32:58.243Z,11.16
2017-05-24T00:33:58.240Z,11.10
2017-05-24T00:34:58.245Z,11.06
2017-05-24T00:35:58.238Z,11.00
2017-05-24T00:36:58.224Z,10.95
2017-05-24T00:37:58.226Z,10.91
2017-05-24T00:38:58.231Z,10.86
2017-05-24T00:39:58.243Z,10.79
2017-05-24T00:40:58.256Z,10.72
2017-05-24T00:41:58.229Z,10.67
2017-05-24T00:42:58.228Z,10.63
2017-05-24T00:43:58.232Z,10.60
2017-05-24T00:44:58.230Z,10.57
2017-05-24T00:45:58.233Z,10.60
2017-05-24T00:46:58.217Z,10.60
2017-05-24T00:47:58.282Z,10.61
2017-05-24T00:48:58.220Z,10.64
2017-05-24T00:49:58.225Z,10.60
2017-05-24T00:50:58.225Z,10.57
2017-05-24T00:51:58.222Z,10.56
2017-05-24T00:52:58.221Z,10.54
2017-05-24T00:53:58.296Z,10.52
2017-05-24T00:54:58.235Z,10.50
2017-05-24T00:55:58.227Z,10.47
2017-05-24T00:56:58.259Z,10.46
2017-05-24T00:57:58.274Z,10.43
2017-05-24T00:58:58.263Z,10.41
2017-05-24T00:59:58.246Z,10.41
2017-05-24T01:00:58.310Z,10.42
2017-05-24T01:01:58.258Z,10.42
2017-05-24T01:02:58.244Z,10.43
2017-05-24T01:03:58.262Z,10.42
2017-05-24T01:04:58.266Z,10.39
2017-05-24T01:05:58.264Z,10.42
2017-05-24T01:06:58.275Z,10.39
2017-05-24T01:07:58.273Z,10.39
2017-05-24T01:08:58.315Z,10.38
2017-05-24T01:09:58.251Z,10.36
2017-05-24T01:10:58.263Z,10.38
2017-05-24T01:11:58.279Z,10.36
2017-05-24T01:12:58.274Z,10.30
2017-05-24T01:13:58.315Z,10.27
2017-05-24T01:14:58.246Z,10.23
2017-05-24T01:15:58.281Z,10.23
2017-05-24T01:16:58.281Z,10.24
2017-05-24T01:17:58.246Z,10.25
2017-05-24T01:18:58.299Z,10.27
2017-05-24T01:19:58.270Z,10.24
2017-05-24T01:20:58.322Z,10.25
2017-05-24T01:21:58.321Z,10.24
2017-05-24T01:22:58.283Z,10.25
2017-05-24T01:23:58.255Z,10.25
2017-05-24T01:24:58.251Z,10.30
2017-05-24T01:25:58.324Z,10.34
2017-05-24T01:26:58.387Z,10.34
2017-05-24T01:27:58.283Z,10.36
2017-05-24T01:28:58.282Z,10.38
2017-05-24T01:29:58.283Z,10.34
2017-05-24T01:30:58.282Z,10.30
2017-05-24T01:31:58.282Z,10.24
2017-05-24T01:32:58.281Z,10.18
2017-05-24T01:33:58.278Z,10.20
2017-05-24T01:34:58.310Z,10.18
2017-05-24T01:35:58.284Z,10.16
2017-05-24T01:36:59.340Z,10.14
2017-05-24T01:37:58.287Z,10.14
2017-05-24T01:38:58.329Z,10.09
2017-05-24T01:39:58.330Z,10.05
2017-05-24T01:40:58.333Z,10.01
2017-05-24T01:41:58.290Z,9.93
2017-05-24T01:42:58.265Z,9.91
2017-05-24T01:43:58.474Z,9.80
2017-05-24T01:44:58.262Z,9.72
2017-05-24T01:45:58.259Z,9.68
2017-05-24T01:46:58.251Z,9.65
2017-05-24T01:47:58.260Z,9.57
2017-05-24T01:48:58.254Z,9.57
2017-05-24T01:49:58.258Z,9.54
2017-05-24T01:50:58.252Z,9.51
2017-05-24T01:51:58.265Z,9.47
2017-05-24T01:52:58.257Z,9.43
2017-05-24T01:53:58.255Z,9.39
2017-05-24T01:54:58.256Z,9.36
2017-05-24T01:55:58.256Z,9.30
2017-05-24T01:56:58.291Z,9.28
2017-05-24T01:57:58.295Z,9.22
2017-05-24T01:58:58.262Z,9.15
2017-05-24T01:59:58.263Z,9.09
2017-05-24T02:00:58.265Z,9.05
2017-05-24T02:01:58.300Z,9.05
2017-05-24T02:02:58.293Z,9.01
2017-05-24T02:03:58.343Z,8.97
2017-05-24T02:04:58.332Z,8.91
2017-05-24T02:05:58.301Z,8.87
2017-05-24T02:06:58.306Z,8.82
2017-05-24T02:07:58.292Z,8.78
2017-05-24T02:08:58.296Z,8.72
2017-05-24T02:09:58.295Z,8.67
2017-05-24T02:10:58.294Z,8.62
2017-05-24T02:11:58.292Z,8.57
2017-05-24T02:12:58.296Z,8.51
2017-05-24T02:13:58.293Z,8.46
2017-05-24T02:14:58.304Z,8.39
2017-05-24T02:15:58.292Z,8.33
2017-05-24T02:16:58.257Z,8.27
2017-05-24T02:17:58.311Z,8.24
2017-05-24T02:18:58.310Z,8.22
2017-05-24T02:19:58.332Z,8.19
2017-05-24T02:20:58.295Z,8.16
2017-05-24T02:21:58.310Z,8.12
2017-05-24T02:22:58.301Z,8.06
2017-05-24T02:23:58.358Z,8.02
2017-05-24T02:24:58.314Z,8.01
2017-05-24T02:25:58.313Z,7.99
2017-05-24T02:26:58.313Z,8.01
2017-05-24T02:27:58.318Z,8.05
2017-05-24T02:28:58.358Z,8.05
2017-05-24T02:29:58.314Z,8.06
2017-05-24T02:30:58.304Z,8.05
2017-05-24T02:31:58.313Z,8.04
2017-05-24T02:32:58.306Z,7.99
2017-05-24T02:33:58.336Z,8.04
2017-05-24T02:34:58.341Z,8.11
2017-05-24T02:35:58.322Z,8.17
2017-05-24T02:36:58.292Z,8.22
2017-05-24T02:37:58.284Z,8.27
2017-05-24T02:38:58.312Z,8.42
2017-05-24T02:39:58.310Z,8.50
2017-05-24T02:40:58.319Z,8.54
2017-05-24T02:41:58.425Z,8.51
2017-05-24T02:42:58.326Z,8.49
2017-05-24T02:43:58.317Z,8.51
2017-05-24T02:44:58.318Z,8.57
2017-05-24T02:45:58.327Z,8.62
2017-05-24T02:46:58.326Z,8.69
2017-05-24T02:47:58.325Z,8.65
2017-05-24T02:48:58.328Z,8.71
2017-05-24T02:49:58.369Z,8.83
2017-05-24T02:50:58.365Z,8.83
2017-05-24T02:51:58.320Z,8.90
2017-05-24T02:52:58.326Z,8.91
2017-05-24T02:53:58.323Z,8.94
2017-05-24T02:54:58.332Z,8.94
2017-05-24T02:55:58.371Z,9.11
2017-05-24T02:56:58.301Z,9.27
2017-05-24T02:57:58.326Z,9.36
2017-05-24T02:58:58.307Z,9.43
2017-05-24T02:59:58.321Z,9.47
2017-05-24T03:00:58.426Z,9.54
2017-05-24T03:01:58.329Z,9.61
2017-05-24T03:02:58.327Z,9.60
2017-05-24T03:03:58.525Z,9.58
2017-05-24T03:04:58.326Z,9.55
2017-05-24T03:05:58.305Z,9.51
2017-05-24T03:06:58.299Z,9.43
2017-05-24T03:07:58.325Z,9.34
2017-05-24T03:08:58.376Z,9.27
2017-05-24T03:09:58.318Z,9.19
2017-05-24T03:10:58.322Z,9.11
2017-05-24T03:11:58.388Z,9.04
2017-05-24T03:12:58.328Z,8.94
2017-05-24T03:13:58.326Z,8.85
2017-05-24T03:14:58.329Z,8.74
2017-05-24T03:15:58.326Z,8.62
2017-05-24T03:16:58.329Z,8.54
2017-05-24T03:17:58.335Z,8.47
2017-05-24T03:18:58.533Z,8.38
2017-05-24T03:19:58.331Z,8.33
2017-05-24T03:20:58.536Z,8.28
2017-05-24T03:21:58.333Z,8.24
2017-05-24T03:22:58.346Z,8.17
2017-05-24T03:23:58.333Z,8.16
2017-05-24T03:24:58.359Z,8.08
2017-05-24T03:25:58.332Z,8.06
2017-05-24T03:26:58.339Z,8.02
2017-05-24T03:27:58.346Z,7.99
2017-05-24T03:28:58.347Z,7.95
2017-05-24T03:29:58.314Z,7.92
2017-05-24T03:30:58.339Z,7.89
2017-05-24T03:31:58.349Z,7.86
2017-05-24T03:32:58.335Z,7.86
2017-05-24T03:33:58.358Z,7.87
2017-05-24T03:34:58.356Z,7.87
2017-05-24T03:35:58.314Z,7.86
2017-05-24T03:36:58.343Z,7.85
2017-05-24T03:37:58.348Z,7.81
2017-05-24T03:38:58.341Z,7.81
2017-05-24T03:39:58.346Z,7.81
2017-05-24T03:40:58.359Z,7.79
2017-05-24T03:41:58.340Z,7.78
2017-05-24T03:42:58.343Z,7.76
2017-05-24T03:43:58.339Z,7.74
2017-05-24T03:44:58.335Z,7.74
2017-05-24T03:45:58.344Z,7.74
2017-05-24T03:46:58.393Z,7.72
2017-05-24T03:47:58.333Z,7.71
2017-05-24T03:48:58.324Z,7.71
2017-05-24T03:49:58.332Z,7.70
2017-05-24T03:50:58.325Z,7.70
2017-05-24T03:51:58.327Z,7.76
2017-05-24T03:52:58.328Z,7.83
2017-05-24T03:53:58.327Z,7.87
2017-05-24T03:54:58.330Z,7.89
2017-05-24T03:55:58.326Z,7.95
2017-05-24T03:56:58.331Z,8.04
2017-05-24T03:57:58.353Z,8.05
2017-05-24T03:58:58.354Z,8.05
2017-05-24T03:59:58.332Z,8.11
2017-05-24T04:00:58.350Z,8.09
2017-05-24T04:01:58.351Z,8.15
2017-05-24T04:02:58.349Z,8.26
2017-05-24T04:03:58.368Z,8.31
2017-05-24T04:04:58.348Z,8.34
2017-05-24T04:05:58.555Z,8.38
2017-05-24T04:06:58.348Z,8.37
2017-05-24T04:07:58.290Z,8.45
2017-05-24T04:08:58.301Z,8.51
2017-05-24T04:09:58.290Z,8.57
2017-05-24T04:10:58.253Z,8.69
2017-05-24T04:11:58.303Z,8.79
2017-05-24T04:12:58.307Z,8.96
2017-05-24T04:13:58.263Z,9.09
2017-05-24T04:14:58.319Z,9.11
2017-05-24T04:15:58.293Z,9.11
2017-05-24T04:16:58.307Z,9.12
2017-05-24T04:17:58.331Z,9.15
2017-05-24T04:18:58.406Z,9.20
2017-05-24T04:19:58.361Z,9.19
2017-05-24T04:20:58.338Z,9.25
2017-05-24T04:21:58.422Z,9.30
2017-05-24T04:22:58.373Z,9.39
2017-05-24T04:23:58.381Z,9.53
2017-05-24T04:24:58.365Z,9.73
2017-05-24T04:25:58.353Z,9.93
2017-05-24T04:26:58.378Z,10.08
2017-05-24T04:27:58.365Z,10.18
2017-05-24T04:28:58.360Z,10.24
2017-05-24T04:29:58.362Z,10.30
2017-05-24T04:30:58.360Z,10.38
2017-05-24T04:31:58.359Z,10.45
2017-05-24T04:32:58.343Z,10.54
2017-05-24T04:33:58.470Z,10.61
2017-05-24T04:34:58.368Z,10.68
2017-05-24T04:35:58.371Z,10.77
2017-05-24T04:36:58.370Z,10.86
2017-05-24T04:37:58.365Z,10.97
2017-05-24T04:38:58.382Z,11.05
2017-05-24T04:39:58.366Z,11.13
2017-05-24T04:40:58.378Z,11.25
2017-05-24T04:41:58.386Z,11.35
2017-05-24T04:42:58.370Z,11.45
2017-05-24T04:43:58.424Z,11.54
2017-05-24T04:44:58.403Z,11.62
2017-05-24T04:45:58.540Z,11.71
2017-05-24T04:46:58.381Z,11.76
2017-05-24T04:47:58.478Z,11.80
2017-05-24T04:48:58.372Z,11.89
2017-05-24T04:49:58.577Z,11.95
2017-05-24T04:50:58.374Z,12.01
2017-05-24T04:51:58.333Z,12.06
2017-05-24T04:52:58.428Z,12.10
2017-05-24T04:53:58.366Z,12.13
2017-05-24T04:54:58.371Z,12.13
2017-05-24T04:55:58.378Z,12.16
2017-05-24T04:56:58.581Z,12.21
2017-05-24T04:57:58.362Z,12.25
2017-05-24T04:58:58.362Z,12.29
2017-05-24T04:59:58.359Z,12.35
2017-05-24T05:00:58.363Z,12.37
2017-05-24T05:01:58.364Z,12.37
2017-05-24T05:02:58.361Z,12.37
2017-05-24T05:03:58.362Z,12.42
2017-05-24T05:04:58.364Z,12.40
2017-05-24T05:05:58.361Z,12.44
2017-05-24T05:06:58.364Z,12.48
2017-05-24T05:07:58.393Z,12.51
2017-05-24T05:08:58.384Z,12.57
2017-05-24T05:09:58.387Z,12.61
2017-05-24T05:10:58.405Z,12.62
2017-05-24T05:11:58.384Z,12.66
2017-05-24T05:12:58.383Z,12.68
2017-05-24T05:13:58.384Z,12.64
2017-05-24T05:14:58.391Z,12.60
2017-05-24T05:15:58.440Z,12.55
2017-05-24T05:16:58.394Z,12.54
2017-05-24T05:17:58.366Z,12.54
2017-05-24T05:18:59.499Z,12.53
2017-05-24T05:19:58.393Z,12.53
2017-05-24T05:20:58.386Z,12.54
2017-05-24T05:21:58.389Z,12.54
2017-05-24T05:22:58.387Z,12.57
2017-05-24T05:23:58.386Z,12.61
2017-05-24T05:24:58.386Z,12.62
2017-05-24T05:25:58.414Z,12.60
2017-05-24T05:26:58.382Z,12.60
2017-05-24T05:27:58.450Z,12.58
2017-05-24T05:28:58.379Z,12.61
2017-05-24T05:29:58.376Z,12.61
2017-05-24T05:30:58.376Z,12.62
2017-05-24T05:31:58.375Z,12.62
2017-05-24T05:32:58.377Z,12.58
2017-05-24T05:33:58.377Z,12.61
2017-05-24T05:34:58.381Z,12.66
2017-05-24T05:35:58.376Z,12.71
2017-05-24T05:36:58.375Z,12.75
2017-05-24T05:37:58.385Z,12.79
2017-05-24T05:38:58.385Z,12.82
2017-05-24T05:39:58.391Z,12.87
2017-05-24T05:40:58.389Z,12.96
2017-05-24T05:41:58.387Z,13.06
2017-05-24T05:42:58.387Z,13.17
2017-05-24T05:43:58.386Z,13.23
2017-05-24T05:44:58.388Z,13.32
2017-05-24T05:45:58.390Z,13.42
2017-05-24T05:46:58.380Z,13.50
2017-05-24T05:47:58.405Z,13.56
2017-05-24T05:48:58.390Z,13.62
2017-05-24T05:49:58.430Z,13.65
2017-05-24T05:50:58.390Z,13.64
2017-05-24T05:51:58.409Z,13.66
2017-05-24T05:52:58.405Z,13.65
2017-05-24T05:53:58.405Z,13.62
2017-05-24T05:54:58.431Z,13.56
2017-05-24T05:55:58.418Z,13.56
2017-05-24T05:56:58.418Z,13.57
2017-05-24T05:57:58.418Z,13.54
2017-05-24T05:58:58.382Z,13.53
2017-05-24T05:59:58.388Z,13.57
2017-05-24T06:00:58.486Z,13.64
2017-05-24T06:01:58.387Z,13.62
2017-05-24T06:02:58.385Z,13.68
2017-05-24T06:03:58.384Z,13.73
2017-05-24T06:04:58.493Z,13.79
2017-05-24T06:05:58.385Z,13.84
2017-05-24T06:06:58.397Z,13.88
2017-05-24T06:07:58.391Z,13.95
2017-05-24T06:08:58.392Z,13.99
2017-05-24T06:09:58.390Z,14.00
2017-05-24T06:10:58.398Z,14.02
2017-05-24T06:11:58.390Z,14.02
2017-05-24T06:12:58.394Z,14.00
2017-05-24T06:13:58.393Z,14.02
2017-05-24T06:14:58.394Z,13.99
2017-05-24T06:15:58.396Z,14.02
2017-05-24T06:16:58.398Z,14.07
2017-05-24T06:17:58.399Z,14.09
2017-05-24T06:18:58.447Z,14.17
2017-05-24T06:19:58.429Z,14.13
2017-05-24T06:20:58.448Z,14.13
2017-05-24T06:21:58.388Z,13.99
2017-05-24T06:22:58.426Z,13.84
2017-05-24T06:23:58.433Z,13.75
2017-05-24T06:24:58.433Z,13.68
2017-05-24T06:25:58.433Z,13.65
2017-05-24T06:26:58.394Z,13.65
2017-05-24T06:27:58.426Z,13.76
2017-05-24T06:28:58.423Z,13.79
2017-05-24T06:29:58.413Z,13.81
2017-05-24T06:30:58.407Z,13.84
2017-05-24T06:31:58.414Z,13.89
2017-05-24T06:32:58.411Z,13.92
2017-05-24T06:33:58.412Z,14.00
2017-05-24T06:34:58.410Z,14.07
2017-05-24T06:35:58.415Z,14.15
2017-05-24T06:36:58.417Z,14.21
2017-05-24T06:37:58.421Z,14.22
2017-05-24T06:38:58.475Z,14.13
2017-05-24T06:39:58.443Z,14.07
2017-05-24T06:40:58.431Z,14.06
2017-05-24T06:41:58.442Z,14.07
2017-05-24T06:42:58.438Z,14.02
2017-05-24T06:43:58.463Z,13.98
2017-05-24T06:44:58.441Z,13.98
2017-05-24T06:45:58.507Z,13.91
2017-05-24T06:46:58.461Z,13.98
2017-05-24T06:47:58.438Z,14.00
2017-05-24T06:48:58.414Z,14.07
2017-05-24T06:49:58.412Z,14.04
2017-05-24T06:50:58.413Z,14.11
2017-05-24T06:51:58.412Z,14.21
2017-05-24T06:52:58.416Z,14.20
2017-05-24T06:53:58.411Z,14.09
2017-05-24T06:54:58.417Z,13.99
2017-05-24T06:55:58.418Z,14.10
2017-05-24T06:56:58.355Z,14.39
2017-05-24T06:57:58.416Z,14.61
2017-05-24T06:58:58.446Z,14.82
2017-05-24T06:59:58.445Z,14.87
2017-05-24T07:00:58.471Z,14.91
2017-05-24T07:01:58.444Z,14.91
2017-05-24T07:02:58.408Z,14.84
2017-05-24T07:03:58.460Z,14.84
2017-05-24T07:04:58.471Z,14.79
2017-05-24T07:05:58.430Z,14.89
2017-05-24T07:06:58.474Z,15.04
2017-05-24T07:07:58.555Z,15.17
2017-05-24T07:08:58.480Z,15.32
2017-05-24T07:09:58.410Z,15.46
2017-05-24T07:10:58.477Z,15.51
2017-05-24T07:11:58.454Z,15.54
2017-05-24T07:12:58.457Z,15.53
2017-05-24T07:13:58.415Z,15.48
2017-05-24T07:14:58.453Z,15.50
2017-05-24T07:15:58.562Z,15.55
2017-05-24T07:16:58.458Z,15.62
2017-05-24T07:17:58.458Z,15.69
2017-05-24T07:18:58.439Z,15.51
2017-05-24T07:19:58.439Z,15.43
2017-05-24T07:20:58.439Z,15.42
2017-05-24T07:21:58.439Z,15.61
2017-05-24T07:22:58.442Z,15.75
2017-05-24T07:23:58.440Z,15.72
2017-05-24T07:24:58.440Z,15.54
2017-05-24T07:25:58.440Z,15.66
2017-05-24T07:26:58.440Z,15.66
2017-05-24T07:27:58.441Z,15.69
2017-05-24T07:28:58.438Z,15.58
2017-05-24T07:29:58.445Z,15.39
2017-05-24T07:30:58.467Z,15.29
2017-05-24T07:31:58.444Z,15.22
2017-05-24T07:32:58.445Z,15.21
2017-05-24T07:33:58.463Z,15.22
2017-05-24T07:34:58.468Z,15.32
2017-05-24T07:35:58.525Z,15.33
2017-05-24T07:36:58.446Z,15.62
2017-05-24T07:37:58.466Z,15.80
2017-05-24T07:38:58.458Z,15.90
2017-05-24T07:39:58.463Z,15.86
2017-05-24T07:40:58.465Z,16.03
2017-05-24T07:41:58.436Z,15.95
2017-05-24T07:42:58.491Z,15.88
2017-05-24T07:43:58.577Z,15.83
2017-05-24T07:44:58.465Z,15.82
2017-05-24T07:45:58.515Z,16.02
2017-05-24T07:46:58.443Z,16.33
2017-05-24T07:47:58.427Z,16.50
2017-05-24T07:48:58.465Z,16.38
2017-05-24T07:49:58.451Z,16.41
2017-05-24T07:50:58.477Z,16.28
2017-05-24T07:51:58.466Z,16.17
2017-05-24T07:52:58.466Z,16.16
2017-05-24T07:53:58.480Z,16.46
2017-05-24T07:54:58.498Z,16.66
2017-05-24T07:55:58.472Z,16.88
2017-05-24T07:56:58.434Z,16.72
2017-05-24T07:57:58.468Z,16.63
2017-05-24T07:58:58.478Z,16.58
2017-05-24T07:59:58.506Z,16.47
2017-05-24T08:00:58.486Z,16.48
2017-05-24T08:01:58.591Z,16.24
2017-05-24T08:02:58.480Z,16.31
2017-05-24T08:03:58.476Z,16.43
2017-05-24T08:04:58.592Z,16.51
2017-05-24T08:05:58.482Z,16.54
2017-05-24T08:06:58.479Z,16.69
2017-05-24T08:07:58.523Z,16.77
2017-05-24T08:08:58.489Z,16.77
2017-05-24T08:09:58.488Z,16.88
2017-05-24T08:10:58.503Z,16.85
2017-05-24T08:11:58.482Z,16.91
2017-05-24T08:12:58.487Z,16.87
2017-05-24T08:13:58.482Z,16.85
2017-05-24T08:14:58.485Z,16.95
2017-05-24T08:15:58.477Z,16.98
2017-05-24T08:16:58.473Z,16.90
2017-05-24T08:17:58.465Z,16.85
2017-05-24T08:18:58.421Z,16.81
2017-05-24T08:19:58.410Z,17.05
2017-05-24T08:20:58.366Z,17.22
2017-05-24T08:21:58.468Z,17.25
2017-05-24T08:22:58.368Z,17.32
2017-05-24T08:23:58.441Z,17.50
2017-05-24T08:24:58.379Z,17.35
2017-05-24T08:25:58.376Z,17.13
2017-05-24T08:26:58.438Z,17.14
2017-05-24T08:27:58.427Z,17.01
2017-05-24T08:28:58.498Z,17.08
2017-05-24T08:29:58.431Z,17.05
2017-05-24T08:30:58.521Z,17.01
2017-05-24T08:31:58.518Z,16.99
2017-05-24T08:32:58.501Z,17.08
2017-05-24T08:33:58.498Z,17.20
2017-05-24T08:34:58.497Z,17.31
2017-05-24T08:35:58.474Z,17.20
2017-05-24T08:36:58.505Z,17.28
2017-05-24T08:37:58.608Z,17.32
2017-05-24T08:38:58.503Z,17.49
2017-05-24T08:39:58.485Z,17.58
2017-05-24T08:40:58.507Z,17.50
2017-05-24T08:42:58.494Z,17.51
2017-05-24T08:43:58.483Z,17.13
2017-05-24T08:44:58.503Z,16.92
2017-05-24T08:45:58.511Z,16.90
2017-05-24T08:46:58.505Z,16.92
2017-05-24T08:47:58.611Z,16.81
2017-05-24T08:48:58.613Z,16.88
2017-05-24T08:49:58.464Z,17.10
2017-05-24T08:50:58.506Z,17.37
2017-05-24T08:51:58.506Z,17.37
2017-05-24T08:52:58.509Z,17.26
2017-05-24T08:53:58.502Z,17.35
2017-05-24T08:54:58.502Z,17.54
2017-05-24T08:55:58.514Z,17.73
2017-05-24T08:56:58.597Z,17.53
2017-05-24T08:57:58.470Z,17.65
2017-05-24T08:58:58.512Z,17.72
2017-05-24T08:59:58.507Z,17.68
2017-05-24T09:00:58.516Z,17.47
2017-05-24T09:01:58.509Z,17.54
2017-05-24T09:02:58.526Z,17.73
2017-05-24T09:03:58.495Z,17.85
2017-05-24T09:04:58.533Z,18.02
2017-05-24T09:05:58.529Z,17.77
2017-05-24T09:06:58.537Z,17.85
2017-05-24T09:07:58.537Z,17.87
2017-05-24T09:08:58.519Z,17.87
2017-05-24T09:09:58.507Z,17.88
2017-05-24T09:10:58.511Z,17.96
2017-05-24T09:11:58.494Z,18.05
2017-05-24T09:12:58.517Z,18.36
2017-05-24T09:13:58.518Z,18.55
2017-05-24T09:14:58.508Z,18.46
2017-05-24T09:15:58.494Z,18.25
2017-05-24T09:16:58.518Z,18.38
2017-05-24T09:17:58.522Z,18.51
2017-05-24T09:18:58.519Z,18.54
2017-05-24T09:19:58.527Z,18.44
2017-05-24T09:20:58.518Z,18.31
2017-05-24T09:21:58.629Z,18.14
2017-05-24T09:22:58.515Z,18.05
2017-05-24T09:23:58.524Z,17.77
2017-05-24T09:24:58.520Z,17.62
2017-05-24T09:25:58.542Z,17.49
2017-05-24T09:26:58.482Z,17.36
2017-05-24T09:27:58.524Z,17.28
2017-05-24T09:28:58.550Z,17.46
2017-05-24T09:29:58.546Z,17.60
2017-05-24T09:30:58.528Z,17.44
2017-05-24T09:31:58.530Z,17.46
2017-05-24T09:32:58.528Z,17.32
2017-05-24T09:33:58.503Z,17.54
2017-05-24T09:34:58.525Z,17.58
2017-05-24T09:35:58.534Z,17.72
2017-05-24T09:36:58.528Z,17.88
2017-05-24T09:37:58.539Z,18.07
2017-05-24T09:38:58.536Z,18.27
2017-05-24T09:39:58.487Z,18.23
2017-05-24T09:40:58.434Z,18.32
2017-05-24T09:41:58.421Z,18.41
2017-05-24T09:42:58.421Z,18.41
2017-05-24T09:43:58.428Z,18.35
2017-05-24T09:44:58.417Z,18.55
2017-05-24T09:45:58.423Z,18.54
2017-05-24T09:46:58.476Z,18.65
2017-05-24T09:47:58.475Z,18.69
2017-05-24T09:48:58.480Z,18.86
2017-05-24T09:49:58.503Z,18.90
2017-05-24T09:50:58.502Z,18.86
2017-05-24T09:51:58.514Z,18.80
2017-05-24T09:52:58.510Z,18.80
2017-05-24T09:53:58.507Z,18.86
2017-05-24T09:54:58.510Z,18.90
2017-05-24T09:55:58.506Z,18.95
2017-05-24T09:56:58.511Z,18.73
2017-05-24T09:57:58.513Z,18.52
2017-05-24T09:58:58.516Z,18.58
2017-05-24T09:59:58.536Z,18.44
2017-05-24T10:00:58.543Z,18.51
2017-05-24T10:01:58.547Z,18.69
2017-05-24T10:02:58.643Z,18.73
2017-05-24T10:03:58.504Z,18.81
2017-05-24T10:04:58.638Z,18.79
2017-05-24T10:05:58.548Z,18.57
2017-05-24T10:06:58.651Z,18.52
2017-05-24T10:07:58.547Z,18.20
2017-05-24T10:08:58.549Z,18.21
2017-05-24T10:09:58.528Z,18.28
2017-05-24T10:10:58.528Z,18.38
2017-05-24T10:11:58.527Z,18.34
2017-05-24T10:12:58.555Z,18.10
2017-05-24T10:13:58.526Z,18.13
2017-05-24T10:14:58.529Z,18.29
2017-05-24T10:15:58.530Z,18.32
2017-05-24T10:16:58.530Z,18.13
2017-05-24T10:17:58.530Z,18.27
2017-05-24T10:18:58.531Z,18.46
2017-05-24T10:19:58.546Z,18.88
2017-05-24T10:20:58.549Z,19.20
2017-05-24T10:21:58.571Z,19.31
2017-05-24T10:22:58.556Z,19.17
2017-05-24T10:23:58.554Z,19.20
2017-05-24T10:24:58.545Z,19.33
2017-05-24T10:25:58.554Z,19.12
2017-05-24T10:26:58.560Z,19.42
2017-05-24T10:27:58.558Z,19.43
2017-05-24T10:28:58.531Z,19.58
2017-05-24T10:29:58.548Z,19.47
2017-05-24T10:30:58.519Z,19.57
2017-05-24T10:31:58.555Z,19.68
2017-05-24T10:32:58.559Z,19.84
2017-05-24T10:33:58.556Z,19.81
2017-05-24T10:34:58.538Z,19.85
2017-05-24T10:35:58.559Z,19.87
2017-05-24T10:36:58.539Z,19.79
2017-05-24T10:37:58.565Z,19.76
2017-05-24T10:38:58.517Z,19.88
2017-05-24T10:39:58.538Z,19.64
2017-05-24T10:40:58.564Z,19.55
2017-05-24T10:41:58.559Z,19.62
2017-05-24T10:42:58.671Z,19.91
2017-05-24T10:43:58.556Z,19.54
2017-05-24T10:44:58.625Z,19.39
2017-05-24T10:45:58.568Z,19.25
2017-05-24T10:46:58.569Z,19.17
2017-05-24T10:47:58.566Z,19.08
2017-05-24T10:48:58.591Z,19.05
2017-05-24T10:49:58.547Z,19.12
2017-05-24T10:50:58.547Z,19.06
2017-05-24T10:51:58.547Z,19.13
2017-05-24T10:52:58.543Z,19.03
2017-05-24T10:53:58.550Z,18.98
2017-05-24T10:54:58.548Z,18.91
2017-05-24T10:55:58.630Z,18.79
2017-05-24T10:56:58.630Z,18.76
2017-05-24T10:57:58.547Z,18.81
2017-05-24T10:58:58.551Z,18.79
2017-05-24T10:59:58.551Z,18.66
2017-05-24T11:00:58.576Z,18.58
2017-05-24T11:01:58.568Z,18.57
2017-05-24T11:02:58.571Z,18.66
2017-05-24T11:03:58.567Z,18.75
2017-05-24T11:04:58.638Z,18.88
2017-05-24T11:05:58.566Z,19.01
2017-05-24T11:06:58.575Z,19.13
2017-05-24T11:07:58.581Z,19.08
2017-05-24T11:08:58.577Z,19.03
2017-05-24T11:09:58.580Z,18.98
2017-05-24T11:10:58.593Z,19.05
2017-05-24T11:11:58.568Z,19.17
2017-05-24T11:12:58.578Z,19.17
2017-05-24T11:13:58.555Z,19.21
2017-05-24T11:14:58.577Z,19.12
2017-05-24T11:15:58.583Z,19.03
2017-05-24T11:16:58.580Z,19.12
2017-05-24T11:17:58.688Z,19.25
2017-05-24T11:18:58.561Z,19.19
2017-05-24T11:19:58.585Z,19.21
2017-05-24T11:20:58.601Z,19.27
2017-05-24T11:21:58.590Z,18.92
2017-05-24T11:22:58.562Z,18.87
2017-05-24T11:23:58.588Z,18.76
2017-05-24T11:24:58.585Z,18.88
2017-05-24T11:25:58.585Z,19.02
2017-05-24T11:26:58.581Z,19.01
2017-05-24T11:27:58.586Z,18.95
2017-05-24T11:28:58.584Z,19.08
2017-05-24T11:29:58.582Z,19.13
2017-05-24T11:30:58.589Z,19.25
2017-05-24T11:31:58.591Z,19.31
2017-05-24T11:32:58.592Z,19.39
2017-05-24T11:33:58.613Z,19.36
2017-05-24T11:34:58.569Z,19.70
2017-05-24T11:35:58.587Z,19.65
2017-05-24T11:36:58.599Z,19.35
2017-05-24T11:38:58.592Z,19.50
2017-05-24T11:39:58.558Z,19.39
2017-05-24T11:40:58.562Z,19.39
2017-05-24T11:41:58.560Z,19.29
2017-05-24T11:42:58.562Z,19.31
2017-05-24T11:43:58.561Z,19.39
2017-05-24T11:44:58.563Z,19.68
2017-05-24T11:45:58.565Z,19.90
2017-05-24T11:46:58.567Z,20.14
2017-05-24T11:47:58.564Z,20.53
2017-05-24T11:48:58.567Z,20.46
2017-05-24T11:49:58.580Z,20.43
2017-05-24T11:50:58.682Z,20.18
2017-05-24T11:51:58.579Z,20.07
2017-05-24T11:52:58.584Z,19.95
2017-05-24T11:53:58.577Z,19.73
2017-05-24T11:54:58.581Z,19.49
2017-05-24T11:55:58.670Z,19.12
2017-05-24T11:56:58.581Z,18.99
2017-05-24T11:57:58.583Z,18.94
2017-05-24T11:58:58.583Z,18.88
2017-05-24T11:59:58.564Z,18.86
2017-05-24T12:00:58.607Z,18.79
2017-05-24T12:01:58.615Z,18.70
2017-05-24T12:02:58.606Z,18.58
2017-05-24T12:03:58.629Z,18.66
2017-05-24T12:04:58.604Z,18.62
2017-05-24T12:05:58.601Z,18.54
2017-05-24T12:06:58.605Z,18.52
2017-05-24T12:07:58.585Z,18.50
2017-05-24T12:08:58.609Z,18.44
2017-05-24T12:09:58.589Z,18.36
2017-05-24T12:10:58.613Z,18.43
2017-05-24T12:11:58.591Z,18.35
2017-05-24T12:12:58.590Z,18.29
2017-05-24T12:13:58.593Z,18.38
2017-05-24T12:14:58.597Z,18.48
2017-05-24T12:15:58.588Z,18.55
2017-05-24T12:16:58.591Z,18.75
2017-05-24T12:17:58.597Z,18.73
2017-05-24T12:18:58.592Z,18.72
2017-05-24T12:19:58.509Z,18.73
2017-05-24T12:20:58.570Z,18.62
2017-05-24T12:21:58.617Z,18.55
2017-05-24T12:22:58.553Z,18.51
2017-05-24T12:23:58.519Z,18.59
2017-05-24T12:24:58.556Z,18.72
2017-05-24T12:25:58.569Z,18.65
2017-05-24T12:26:58.549Z,18.59
2017-05-24T12:27:58.518Z,18.68
2017-05-24T12:28:58.548Z,18.86
2017-05-24T12:29:58.594Z,19.06
2017-05-24T12:30:58.669Z,19.24
2017-05-24T12:31:58.640Z,19.27
2017-05-24T12:32:58.642Z,19.29
2017-05-24T12:33:58.642Z,19.33
2017-05-24T12:34:58.594Z,19.24
2017-05-24T12:35:58.598Z,19.12
2017-05-24T12:36:58.617Z,19.13
2017-05-24T12:37:58.620Z,19.27
2017-05-24T12:38:58.616Z,19.31
2017-05-24T12:39:58.604Z,19.36
2017-05-24T12:40:58.601Z,19.29
2017-05-24T12:41:58.607Z,19.29
2017-05-24T12:42:58.604Z,19.10
2017-05-24T12:43:58.608Z,19.12
2017-05-24T12:44:58.604Z,19.20
2017-05-24T12:45:58.606Z,19.12
2017-05-24T12:46:58.606Z,18.99
2017-05-24T12:47:58.609Z,19.06
2017-05-24T12:48:58.608Z,19.20
2017-05-24T12:49:58.602Z,19.29
2017-05-24T12:50:58.596Z,19.31
2017-05-24T12:51:58.598Z,19.31
2017-05-24T12:52:58.596Z,19.39
2017-05-24T12:53:58.606Z,19.54
2017-05-24T12:54:58.599Z,19.73
2017-05-24T12:55:58.602Z,19.65
2017-05-24T12:56:58.598Z,19.60
2017-05-24T12:57:58.599Z,19.54
2017-05-24T12:58:58.605Z,19.61
2017-05-24T12:59:58.606Z,19.76
2017-05-24T13:00:58.600Z,19.74